Time;durP1;ratioP1;P1;durP2;ratioP2;P2;SDS_P1;SDS_P2;PMS_P1;PMS_P2;Temp;Humidity;BMP_temperature;BMP_pressure;BME280_temperature;BME280_humidity;BME280_pressure;Samples;Min_cycle;Max_cycle;Signal;HPM_P1;HPM_P2
2021/10/16 01:58:07;;;;;;;0.10;0.10;;;;;;;;;;4849650;28;20211;-76
2021/10/16 11:47:10;;;;;;;2.97;2.13;;;;;;;;;;4996094;28;20432;-80
2021/10/16 11:49:35;;;;;;;5.20;3.40;;;;;;;;;;4993796;28;20034;-79
2021/10/16 11:52:00;;;;;;;1.45;0.93;;;;;;;;;;4994172;28;20023;-79
2021/10/16 11:54:26;;;;;;;2.58;2.38;;;;;;;;;;4993969;28;20458;-79
2021/10/16 11:56:58;;;;;;;1.90;1.80;;;;;;;;;;4993658;28;20034;-78
2021/10/16 11:59:23;;;;;;;1.55;1.45;;;;;;;;;;4993891;28;20037;-79
2021/10/16 12:01:49;;;;;;;1.27;1.17;;;;;;;;;;4993691;28;20101;-78
2021/10/16 12:04:14;;;;;;;2.15;1.63;;;;;;;;;;4993887;28;20039;-79
2021/10/16 12:06:40;;;;;;;1.58;1.27;;;;;;;;;;4993530;28;20057;-81
2021/10/16 12:09:11;;;;;;;2.97;1.75;;;;;;;;;;4993617;28;20053;-79
2021/10/16 12:11:37;;;;;;;3.38;2.08;;;;;;;;;;4993786;28;20042;-79
2021/10/16 12:14:04;;;;;;;2.22;1.27;;;;;;;;;;4993526;28;20026;-79
2021/10/16 12:16:37;;;;;;;6.75;1.23;;;;;;;;;;4993618;28;20018;-79
2021/10/16 12:19:04;;;;;;;1.33;1.23;;;;;;;;;;4993415;28;20034;-79
2021/10/16 12:21:39;;;;;;;1.27;1.17;;;;;;;;;;4993941;28;20023;-79
2021/10/16 12:24:04;;;;;;;;;;;;;;;;;;4994491;28;20465;-79
2021/10/16 12:26:32;;;;;;;1.45;1.35;;;;;;;;;;4993550;28;20388;-79
2021/10/16 12:28:58;;;;;;;2.17;1.90;;;;;;;;;;4993475;28;20108;-79
2021/10/16 12:31:24;;;;;;;3.60;1.38;;;;;;;;;;4993457;28;20049;-81
2021/10/16 12:33:58;;;;;;;0.25;0.25;;;;;;;;;;4993185;28;20026;-79
2021/10/16 12:36:43;;;;;;;1.30;1.20;;;;;;;;;;4993664;28;20030;-80
2021/10/16 12:39:09;;;;;;;0.73;0.73;;;;;;;;;;4962854;28;20177;-79
2021/10/16 12:41:36;;;;;;;1.70;1.13;;;;;;;;;;4993335;28;20121;-80
2021/10/16 12:44:15;;;;;;;2.72;2.53;;;;;;;;;;4993208;28;20027;-79
2021/10/16 12:46:40;;;;;;;2.05;1.42;;;;;;;;;;4992934;28;20046;-81
2021/10/16 12:49:06;;;;;;;3.10;1.73;;;;;;;;;;4993442;28;20481;-79
2021/10/16 12:51:39;;;;;;;1.45;1.35;;;;;;;;;;4993676;28;20110;-79
2021/10/16 12:54:04;;;;;;;0.90;0.80;;;;;;;;;;4993322;28;20042;-79
2021/10/16 12:56:30;;;;;;;1.40;0.98;;;;;;;;;;4993322;28;20382;-79
2021/10/16 12:58:55;;;;;;;1.55;1.30;;;;;;;;;;4995122;28;20018;-80
2021/10/16 13:01:20;;;;;;;0.90;0.77;;;;;;;;;;4979774;28;20041;-80
2021/10/16 13:03:48;;;;;;;1.25;1.13;;;;;;;;;;4997099;28;20125;-80
2021/10/16 13:06:14;;;;;;;2.10;1.23;;;;;;;;;;4997118;28;20085;-80
2021/10/16 13:08:39;;;;;;;0.30;0.30;;;;;;;;;;4996851;28;20026;-80
2021/10/16 13:11:05;;;;;;;1.75;1.27;;;;;;;;;;4996943;28;20056;-82
2021/10/16 13:13:30;;;;;;;1.38;1.13;;;;;;;;;;4997041;28;20449;-79
2021/10/16 13:15:55;;;;;;;1.50;1.23;;;;;;;;;;4996899;28;20069;-80
2021/10/16 13:18:21;;;;;;;0.52;0.52;;;;;;;;;;4996943;28;20359;-80
2021/10/16 13:20:46;;;;;;;1.20;0.93;;;;;;;;;;4996883;28;20033;-80
2021/10/16 13:23:11;;;;;;;0.50;0.30;;;;;;;;;;4996908;28;20054;-79
2021/10/16 13:25:39;;;;;;;0.98;0.73;;;;;;;;;;4996687;28;20069;-80
2021/10/16 13:28:05;;;;;;;0.63;0.63;;;;;;;;;;4996847;28;20018;-80
2021/10/16 13:30:30;;;;;;;1.13;0.88;;;;;;;;;;4996450;28;20042;-79
2021/10/16 13:32:55;;;;;;;1.63;1.52;;;;;;;;;;4996206;28;20041;-80
2021/10/16 13:35:21;;;;;;;0.63;0.63;;;;;;;;;;5001499;28;20018;-80
2021/10/16 13:37:46;;;;;;;2.40;1.70;;;;;;;;;;5007387;28;20439;-80
2021/10/16 13:40:13;;;;;;;2.45;1.95;;;;;;;;;;5002240;28;20041;-80
2021/10/16 13:42:38;;;;;;;1.77;1.55;;;;;;;;;;5002401;28;20018;-80
2021/10/16 13:45:04;;;;;;;5.40;3.33;;;;;;;;;;5012838;28;20054;-80
2021/10/16 13:47:30;;;;;;;0.90;0.85;;;;;;;;;;5015753;28;20041;-80
2021/10/16 13:49:55;;;;;;;1.58;1.13;;;;;;;;;;5015795;28;20034;-80
2021/10/16 13:52:20;;;;;;;1.17;0.93;;;;;;;;;;5016118;28;20041;-80
2021/10/16 13:54:46;;;;;;;0.52;0.43;;;;;;;;;;5015913;28;20481;-80
2021/10/16 13:57:11;;;;;;;1.17;0.47;;;;;;;;;;5015651;28;20018;-80
2021/10/16 13:59:36;;;;;;;3.97;1.60;;;;;;;;;;5015400;28;20439;-80
2021/10/16 14:02:01;;;;;;;0.45;0.45;;;;;;;;;;5009963;28;20041;-81
2021/10/16 14:04:28;;;;;;;1.63;1.52;;;;;;;;;;5015859;28;20026;-79
2021/10/16 14:06:53;;;;;;;0.68;0.63;;;;;;;;;;5015728;28;20141;-79
2021/10/16 14:09:18;;;;;;;0.55;0.50;;;;;;;;;;5014951;28;20538;-80
2021/10/16 14:11:44;;;;;;;1.45;1.33;;;;;;;;;;5014772;28;20030;-80
2021/10/16 14:14:09;;;;;;;3.83;1.67;;;;;;;;;;5014946;28;20034;-83
2021/10/16 14:16:35;;;;;;;0.80;0.68;;;;;;;;;;5014913;28;20381;-80
2021/10/16 14:19:00;;;;;;;0.57;0.57;;;;;;;;;;5014427;28;20026;-80
2021/10/16 14:21:25;;;;;;;0.08;0.08;;;;;;;;;;5015078;28;20117;-80
2021/10/16 14:23:50;;;;;;;1.17;0.80;;;;;;;;;;5014691;28;20030;-80
2021/10/16 14:26:16;;;;;;;0.28;0.28;;;;;;;;;;5014907;28;20438;-79
2021/10/16 14:28:42;;;;;;;0.25;0.25;;;;;;;;;;5014636;28;20112;-80
2021/10/16 14:31:07;;;;;;;0.63;0.63;;;;;;;;;;5014540;28;20038;-79
2021/10/16 14:33:33;;;;;;;1.67;1.58;;;;;;;;;;5014818;28;20100;-80
2021/10/16 14:35:58;;;;;;;0.70;0.43;;;;;;;;;;5014504;28;20042;-80
2021/10/16 14:38:24;;;;;;;0.13;0.13;;;;;;;;;;5014430;28;20037;-80
2021/10/16 14:40:50;;;;;;;0.20;0.20;;;;;;;;;;5014540;28;20017;-80
2021/10/16 14:43:16;;;;;;;0.77;0.73;;;;;;;;;;5014897;28;20095;-79
2021/10/16 14:45:41;;;;;;;0.43;0.43;;;;;;;;;;5014183;28;20057;-79
2021/10/16 14:48:06;;;;;;;0.20;0.20;;;;;;;;;;5014738;28;20049;-79
2021/10/16 14:50:32;;;;;;;0.75;0.75;;;;;;;;;;5014444;28;20115;-81
2021/10/16 14:52:57;;;;;;;1.08;0.60;;;;;;;;;;5014180;28;20041;-79
2021/10/16 14:55:24;;;;;;;0.52;0.52;;;;;;;;;;5014266;28;20045;-79
2021/10/16 14:57:49;;;;;;;0.13;0.13;;;;;;;;;;5014114;28;20034;-80
2021/10/16 15:00:14;;;;;;;0.52;0.52;;;;;;;;;;4996861;28;20092;-79
2021/10/16 15:02:39;;;;;;;0.40;0.40;;;;;;;;;;5013966;28;20458;-80
2021/10/16 15:05:08;;;;;;;0.30;0.30;;;;;;;;;;5013931;28;20116;-79
2021/10/16 15:07:34;;;;;;;2.08;1.00;;;;;;;;;;5014264;28;20033;-79
2021/10/16 15:09:59;;;;;;;1.00;0.57;;;;;;;;;;5013718;28;20437;-79
2021/10/16 15:12:24;;;;;;;0.75;0.75;;;;;;;;;;5014167;28;20029;-80
2021/10/16 15:14:50;;;;;;;0.68;0.68;;;;;;;;;;5014010;28;20040;-79
2021/10/16 15:17:15;;;;;;;0.55;0.50;;;;;;;;;;5013494;28;20021;-79
2021/10/16 15:19:40;;;;;;;0.20;0.20;;;;;;;;;;5013932;28;20030;-79
2021/10/16 15:22:05;;;;;;;0.20;0.20;;;;;;;;;;5013149;28;20092;-79
2021/10/16 15:24:31;;;;;;;0.28;0.28;;;;;;;;;;5013556;28;20073;-80
2021/10/16 15:26:56;;;;;;;0.08;0.08;;;;;;;;;;5011607;28;20113;-80
2021/10/16 15:29:21;;;;;;;0.25;0.25;;;;;;;;;;4996714;28;20104;-79
2021/10/16 15:31:47;;;;;;;0.57;0.57;;;;;;;;;;4999395;28;20033;-80
2021/10/16 15:34:12;;;;;;;0.80;0.43;;;;;;;;;;5001957;28;20033;-79
2021/10/16 15:36:37;;;;;;;0.00;0.00;;;;;;;;;;5005299;28;20034;-79
2021/10/16 15:39:03;;;;;;;0.10;0.10;;;;;;;;;;5007295;28;20347;-79
2021/10/16 15:41:28;;;;;;;1.50;0.82;;;;;;;;;;5005552;28;20420;-79
2021/10/16 15:43:54;;;;;;;0.22;0.22;;;;;;;;;;4999647;28;20030;-79
2021/10/16 15:46:19;;;;;;;0.60;0.40;;;;;;;;;;5007762;28;20096;-79
2021/10/16 15:48:45;;;;;;;0.73;0.30;;;;;;;;;;5008311;28;20512;-80
2021/10/16 15:51:14;;;;;;;0.10;0.10;;;;;;;;;;5004258;28;20042;-79
2021/10/16 15:53:39;;;;;;;0.80;0.43;;;;;;;;;;4999051;28;20101;-80
2021/10/16 15:56:05;;;;;;;0.57;0.57;;;;;;;;;;5001909;28;20097;-79
2021/10/16 15:58:30;;;;;;;0.10;0.10;;;;;;;;;;5001768;28;20026;-79
2021/10/16 16:00:55;;;;;;;0.20;0.20;;;;;;;;;;4993640;28;20026;-79
2021/10/16 16:03:20;;;;;;;0.30;0.30;;;;;;;;;;4993521;28;20034;-79
2021/10/16 16:05:46;;;;;;;1.27;0.85;;;;;;;;;;4994216;28;20038;-79
2021/10/16 16:08:11;;;;;;;0.00;0.00;;;;;;;;;;4993991;28;20054;-79
2021/10/16 16:10:37;;;;;;;0.20;0.20;;;;;;;;;;4993941;28;20389;-79
2021/10/16 16:13:02;;;;;;;0.22;0.08;;;;;;;;;;5000999;28;20029;-78
2021/10/16 16:15:27;;;;;;;0.00;0.00;;;;;;;;;;5005195;28;20028;-80
2021/10/16 16:17:53;;;;;;;0.15;0.15;;;;;;;;;;5004638;28;20113;-79
2021/10/16 16:20:18;;;;;;;0.00;0.00;;;;;;;;;;5011399;28;20069;-79
2021/10/16 16:22:43;;;;;;;0.30;0.20;;;;;;;;;;5013535;28;20029;-79
2021/10/16 16:25:09;;;;;;;1.95;1.45;;;;;;;;;;5013443;28;20041;-79
2021/10/16 16:27:34;;;;;;;0.52;0.45;;;;;;;;;;5013218;28;20038;-79
2021/10/16 16:30:00;;;;;;;0.22;0.22;;;;;;;;;;5013138;28;20034;-79
2021/10/16 16:32:25;;;;;;;0.10;0.10;;;;;;;;;;5013223;28;20026;-79
2021/10/16 16:34:51;;;;;;;0.08;0.08;;;;;;;;;;5016708;28;20034;-79
2021/10/16 16:37:16;;;;;;;0.00;0.00;;;;;;;;;;5017149;28;20026;-79
2021/10/16 16:39:42;;;;;;;0.20;0.20;;;;;;;;;;5017084;28;20026;-79
2021/10/16 16:42:08;;;;;;;1.23;1.13;;;;;;;;;;5017256;28;20042;-79
2021/10/16 16:44:33;;;;;;;1.33;1.20;;;;;;;;;;5017002;28;20417;-78
2021/10/16 16:46:58;;;;;;;0.40;0.40;;;;;;;;;;5017048;28;20057;-78
2021/10/16 16:49:23;;;;;;;0.30;0.30;;;;;;;;;;5016964;28;20385;-78
2021/10/16 16:51:49;;;;;;;0.17;0.17;;;;;;;;;;5016909;28;20105;-79
2021/10/16 16:54:14;;;;;;;0.65;0.20;;;;;;;;;;5017022;28;20481;-78
2021/10/16 16:56:39;;;;;;;0.00;0.00;;;;;;;;;;5016766;28;20030;-79
2021/10/16 16:59:05;;;;;;;0.25;0.25;;;;;;;;;;5016774;28;20030;-79
2021/10/16 17:01:30;;;;;;;0.10;0.10;;;;;;;;;;5016646;28;20029;-80
2021/10/16 17:03:55;;;;;;;0.10;0.10;;;;;;;;;;5016743;28;20483;-80
2021/10/16 17:06:20;;;;;;;1.05;0.82;;;;;;;;;;5016779;28;20502;-81
2021/10/16 17:08:46;;;;;;;0.40;0.40;;;;;;;;;;5002181;28;20081;-80
2021/10/16 17:11:11;;;;;;;0.50;0.47;;;;;;;;;;5001911;28;20030;-81
2021/10/16 17:13:36;;;;;;;0.47;0.47;;;;;;;;;;5011004;28;20102;-78
2021/10/16 17:16:02;;;;;;;0.10;0.10;;;;;;;;;;5010695;28;20458;-78
2021/10/16 17:18:27;;;;;;;0.10;0.10;;;;;;;;;;5015673;28;20462;-79
2021/10/16 17:20:53;;;;;;;0.17;0.17;;;;;;;;;;5005941;28;20097;-78
2021/10/16 17:23:19;;;;;;;0.20;0.20;;;;;;;;;;5005273;28;20038;-78
2021/10/16 17:25:44;;;;;;;0.10;0.10;;;;;;;;;;5013530;28;20150;-79
2021/10/16 17:28:09;;;;;;;1.98;0.90;;;;;;;;;;4996654;28;20109;-78
2021/10/16 17:30:35;;;;;;;2.78;0.75;;;;;;;;;;4996391;28;20528;-78
2021/10/16 17:33:00;;;;;;;0.10;0.10;;;;;;;;;;4996512;28;20030;-78
2021/10/16 17:35:27;;;;;;;0.75;0.63;;;;;;;;;;4996645;28;20018;-81
2021/10/16 17:37:52;;;;;;;0.57;0.57;;;;;;;;;;5000777;28;20096;-81
2021/10/16 17:40:18;;;;;;;0.68;0.68;;;;;;;;;;5016032;28;20529;-81
2021/10/16 17:42:43;;;;;;;0.22;0.22;;;;;;;;;;5015767;28;20026;-80
2021/10/16 17:45:10;;;;;;;0.05;0.05;;;;;;;;;;5015368;28;20056;-80
2021/10/16 17:47:36;;;;;;;0.35;0.15;;;;;;;;;;5015967;28;20040;-78
2021/10/16 17:50:02;;;;;;;0.38;0.38;;;;;;;;;;5015865;28;20038;-77
2021/10/16 17:52:27;;;;;;;0.00;0.00;;;;;;;;;;5015908;28;20057;-80
2021/10/16 17:54:53;;;;;;;0.10;0.10;;;;;;;;;;5015666;28;20393;-77
2021/10/16 17:57:19;;;;;;;0.10;0.10;;;;;;;;;;5015738;28;20026;-78
2021/10/16 17:59:44;;;;;;;0.95;0.85;;;;;;;;;;5015658;28;20030;-80
2021/10/16 18:02:11;;;;;;;1.08;0.98;;;;;;;;;;5015619;28;20040;-80
2021/10/16 18:04:36;;;;;;;0.15;0.15;;;;;;;;;;5015440;28;20054;-80
2021/10/16 18:07:01;;;;;;;0.20;0.17;;;;;;;;;;5015369;28;20030;-80
2021/10/16 18:09:27;;;;;;;0.70;0.70;;;;;;;;;;5015649;28;20037;-80
2021/10/16 18:11:52;;;;;;;0.10;0.10;;;;;;;;;;5015735;28;20402;-81
2021/10/16 18:14:17;;;;;;;2.30;1.75;;;;;;;;;;5015340;28;20037;-80
2021/10/16 18:16:44;;;;;;;0.25;0.25;;;;;;;;;;5015277;28;20030;-81
2021/10/16 18:19:09;;;;;;;0.10;0.10;;;;;;;;;;5015169;28;20022;-78
2021/10/16 18:21:34;;;;;;;0.65;0.65;;;;;;;;;;5015202;28;20030;-78
2021/10/16 18:24:00;;;;;;;0.10;0.10;;;;;;;;;;5014911;28;20065;-80
2021/10/16 18:26:26;;;;;;;0.17;0.17;;;;;;;;;;5015240;28;20018;-80
2021/10/16 18:28:51;;;;;;;0.65;0.65;;;;;;;;;;5014885;28;20037;-81
2021/10/16 18:31:16;;;;;;;0.30;0.30;;;;;;;;;;5015089;28;20050;-77
2021/10/16 18:33:42;;;;;;;0.52;0.52;;;;;;;;;;5014610;28;20030;-78
2021/10/16 18:36:07;;;;;;;0.52;0.52;;;;;;;;;;5015093;28;20108;-80
2021/10/16 18:38:33;;;;;;;0.10;0.10;;;;;;;;;;5011655;28;20030;-80
2021/10/16 18:40:58;;;;;;;0.52;0.52;;;;;;;;;;5033043;28;20424;-81
2021/10/16 18:43:23;;;;;;;0.52;0.43;;;;;;;;;;5034008;28;20028;-80
2021/10/16 18:45:48;;;;;;;0.32;0.32;;;;;;;;;;5034377;28;20490;-80
2021/10/16 18:48:14;;;;;;;1.30;0.95;;;;;;;;;;5018059;28;20049;-80
2021/10/16 18:50:40;;;;;;;4.65;2.13;;;;;;;;;;5013670;28;20445;-80
2021/10/16 18:53:05;;;;;;;1.10;0.40;;;;;;;;;;5014050;28;20034;-80
2021/10/16 18:55:30;;;;;;;0.15;0.15;;;;;;;;;;5014016;28;20443;-80
2021/10/16 18:57:56;;;;;;;0.22;0.22;;;;;;;;;;5014061;28;20842;-79
2021/10/16 19:00:21;;;;;;;0.30;0.30;;;;;;;;;;5014370;28;20030;-83
2021/10/16 19:02:46;;;;;;;0.20;0.20;;;;;;;;;;5014472;28;20030;-80
2021/10/16 19:05:12;;;;;;;0.20;0.20;;;;;;;;;;5014344;28;20109;-80
2021/10/16 19:07:37;;;;;;;0.45;0.45;;;;;;;;;;5014016;28;20371;-80
2021/10/16 19:10:04;;;;;;;0.10;0.10;;;;;;;;;;5014037;28;20040;-80
2021/10/16 19:12:29;;;;;;;0.43;0.43;;;;;;;;;;5014413;28;20041;-80
2021/10/16 19:14:54;;;;;;;0.30;0.30;;;;;;;;;;5014137;28;20038;-80
2021/10/16 19:17:20;;;;;;;0.00;0.00;;;;;;;;;;5014193;28;20029;-81
2021/10/16 19:19:46;;;;;;;8.98;1.60;;;;;;;;;;5013941;28;20044;-80
2021/10/16 19:22:13;;;;;;;0.30;0.30;;;;;;;;;;5013012;28;20385;-80
2021/10/16 19:24:39;;;;;;;0.43;0.43;;;;;;;;;;5013695;28;20018;-80
2021/10/16 19:27:04;;;;;;;3.40;1.02;;;;;;;;;;5013809;28;20437;-80
2021/10/16 19:29:30;;;;;;;0.20;0.20;;;;;;;;;;5013732;28;20033;-80
2021/10/16 19:31:55;;;;;;;1.08;0.50;;;;;;;;;;5013563;28;20025;-80
2021/10/16 19:34:21;;;;;;;0.30;0.30;;;;;;;;;;5013896;28;20037;-80
2021/10/16 19:36:46;;;;;;;0.63;0.63;;;;;;;;;;5013376;28;20121;-80
2021/10/16 19:39:11;;;;;;;0.15;0.15;;;;;;;;;;5014026;28;20030;-80
2021/10/16 19:41:36;;;;;;;0.65;0.65;;;;;;;;;;5014033;28;20036;-80
2021/10/16 19:44:03;;;;;;;1.25;1.15;;;;;;;;;;5013324;28;20040;-80
2021/10/16 19:46:28;;;;;;;1.80;1.70;;;;;;;;;;5013737;28;20041;-80
2021/10/16 19:48:57;;;;;;;0.15;0.15;;;;;;;;;;5013464;28;20113;-81
2021/10/16 19:51:22;;;;;;;1.05;0.95;;;;;;;;;;5013578;28;20041;-80
2021/10/16 19:53:47;;;;;;;1.50;1.30;;;;;;;;;;5013403;28;20018;-79
2021/10/16 19:56:13;;;;;;;0.17;0.17;;;;;;;;;;5013693;28;20445;-80
2021/10/16 19:58:39;;;;;;;1.23;1.13;;;;;;;;;;5012950;28;20436;-80
2021/10/16 20:01:06;;;;;;;0.50;0.50;;;;;;;;;;5013672;28;20425;-81
2021/10/16 20:03:31;;;;;;;0.90;0.63;;;;;;;;;;5013234;28;20745;-80
2021/10/16 20:05:57;;;;;;;0.60;0.57;;;;;;;;;;4995746;28;20032;-81
2021/10/16 20:08:23;;;;;;;0.15;0.15;;;;;;;;;;5013154;28;20442;-82
2021/10/16 20:10:48;;;;;;;1.25;1.15;;;;;;;;;;5013428;28;20045;-80
2021/10/16 20:13:14;;;;;;;0.47;0.47;;;;;;;;;;5013487;28;20121;-79
2021/10/16 20:15:39;;;;;;;0.13;0.13;;;;;;;;;;5013017;28;20028;-80
2021/10/16 20:18:04;;;;;;;0.03;0.03;;;;;;;;;;5013260;28;20030;-79
2021/10/16 20:20:29;;;;;;;0.70;0.70;;;;;;;;;;5013339;28;20072;-80
2021/10/16 20:22:57;;;;;;;1.10;1.00;;;;;;;;;;5012903;28;20018;-80
2021/10/16 20:25:22;;;;;;;0.82;0.82;;;;;;;;;;5013264;28;20088;-80
2021/10/16 20:27:48;;;;;;;0.30;0.30;;;;;;;;;;5012993;28;20049;-81
2021/10/16 20:30:13;;;;;;;1.15;1.10;;;;;;;;;;5013003;28;20049;-79
2021/10/16 20:32:38;;;;;;;0.82;0.63;;;;;;;;;;5013307;28;20026;-80
2021/10/16 20:35:04;;;;;;;0.20;0.20;;;;;;;;;;5012825;28;20470;-79
2021/10/16 20:37:29;;;;;;;1.80;1.65;;;;;;;;;;5011989;28;20022;-80
2021/10/16 20:39:55;;;;;;;0.63;0.63;;;;;;;;;;5000159;28;20029;-80
2021/10/16 20:42:20;;;;;;;1.80;1.52;;;;;;;;;;4994818;28;20034;-81
2021/10/16 20:44:45;;;;;;;1.85;1.00;;;;;;;;;;4991655;28;20023;-80
2021/10/16 20:47:10;;;;;;;0.20;0.20;;;;;;;;;;4991855;28;20050;-79
2021/10/16 20:49:36;;;;;;;0.30;0.30;;;;;;;;;;4992038;28;20038;-81
2021/10/16 20:52:03;;;;;;;0.10;0.10;;;;;;;;;;4992131;28;20042;-81
2021/10/16 20:54:28;;;;;;;0.30;0.30;;;;;;;;;;4993062;28;20030;-79
2021/10/16 20:56:54;;;;;;;0.80;0.65;;;;;;;;;;4993287;28;20034;-81
2021/10/16 20:59:19;;;;;;;0.00;0.00;;;;;;;;;;4995844;28;20026;-80
2021/10/16 21:01:44;;;;;;;1.95;1.50;;;;;;;;;;5003492;28;20061;-80
2021/10/16 21:04:09;;;;;;;1.65;1.55;;;;;;;;;;4995190;28;20065;-80
2021/10/16 21:06:35;;;;;;;0.30;0.30;;;;;;;;;;4992859;28;20030;-80
2021/10/16 21:09:01;;;;;;;0.55;0.55;;;;;;;;;;4992496;28;20035;-80
2021/10/16 21:11:26;;;;;;;1.60;1.40;;;;;;;;;;4992682;28;20494;-79
2021/10/16 21:13:52;;;;;;;0.57;0.57;;;;;;;;;;4992635;28;20066;-80
2021/10/16 21:16:18;;;;;;;0.55;0.55;;;;;;;;;;4994272;28;20049;-80
2021/10/16 21:18:43;;;;;;;0.50;0.50;;;;;;;;;;5012555;28;20120;-80
2021/10/16 21:21:08;;;;;;;1.35;1.25;;;;;;;;;;5016214;28;20061;-79
2021/10/16 21:23:34;;;;;;;2.05;1.30;;;;;;;;;;5002794;28;20022;-80
2021/10/16 21:25:59;;;;;;;0.70;0.68;;;;;;;;;;5007077;28;20499;-80
2021/10/16 21:28:24;;;;;;;0.57;0.57;;;;;;;;;;4996307;28;20022;-80
2021/10/16 21:30:50;;;;;;;2.42;1.80;;;;;;;;;;4996539;28;20042;-82
2021/10/16 21:33:15;;;;;;;0.90;0.55;;;;;;;;;;4996475;28;20497;-80
2021/10/16 21:35:41;;;;;;;1.58;1.02;;;;;;;;;;4996314;28;20022;-80
2021/10/16 21:38:07;;;;;;;1.92;1.67;;;;;;;;;;4995788;28;20101;-81
2021/10/16 21:40:33;;;;;;;0.55;0.55;;;;;;;;;;5003669;28;20080;-80
2021/10/16 21:42:59;;;;;;;0.70;0.65;;;;;;;;;;5004594;28;20014;-80
2021/10/16 21:45:25;;;;;;;0.32;0.32;;;;;;;;;;5004169;28;20050;-80
2021/10/16 21:47:50;;;;;;;1.15;1.05;;;;;;;;;;5004445;28;20087;-80
2021/10/16 21:50:15;;;;;;;0.10;0.10;;;;;;;;;;5002606;28;20042;-79
2021/10/16 21:52:41;;;;;;;0.77;0.77;;;;;;;;;;5004702;28;20382;-79
2021/10/16 21:55:07;;;;;;;0.63;0.35;;;;;;;;;;5004339;28;20438;-80
2021/10/16 21:57:32;;;;;;;1.38;1.27;;;;;;;;;;5007071;28;20022;-80
2021/10/16 22:00:11;;;;;;;0.70;0.70;;;;;;;;;;5001201;28;20383;-81
2021/10/16 22:02:36;;;;;;;0.50;0.50;;;;;;;;;;5006456;28;20034;-79
2021/10/16 22:05:02;;;;;;;0.45;0.45;;;;;;;;;;5005731;28;20025;-79
2021/10/16 22:07:27;;;;;;;1.85;1.27;;;;;;;;;;5002243;28;20113;-80
2021/10/16 22:09:52;;;;;;;0.73;0.70;;;;;;;;;;5006622;28;20064;-81
2021/10/16 22:12:18;;;;;;;0.30;0.30;;;;;;;;;;5004343;28;20026;-80
2021/10/16 22:14:43;;;;;;;0.20;0.20;;;;;;;;;;5005189;28;20475;-80
2021/10/16 22:17:08;;;;;;;0.70;0.70;;;;;;;;;;5003641;28;20023;-79
2021/10/16 22:19:34;;;;;;;0.63;0.60;;;;;;;;;;4995742;28;20027;-79
2021/10/16 22:21:59;;;;;;;0.85;0.65;;;;;;;;;;4995754;28;20521;-80
2021/10/16 22:24:24;;;;;;;1.75;1.27;;;;;;;;;;4995596;28;20447;-80
2021/10/16 22:26:49;;;;;;;1.30;1.13;;;;;;;;;;4995607;28;20606;-80
2021/10/16 22:29:15;;;;;;;0.88;0.88;;;;;;;;;;4995103;28;20042;-80
2021/10/16 22:31:40;;;;;;;0.40;0.40;;;;;;;;;;4978044;28;20022;-79
2021/10/16 22:34:05;;;;;;;0.55;0.55;;;;;;;;;;4995429;28;20113;-80
2021/10/16 22:36:31;;;;;;;2.28;1.17;;;;;;;;;;4995485;28;20459;-79
2021/10/16 22:38:56;;;;;;;0.15;0.15;;;;;;;;;;4995327;28;20378;-80
2021/10/16 22:41:21;;;;;;;0.10;0.10;;;;;;;;;;4995305;28;20029;-80
2021/10/16 22:43:47;;;;;;;0.95;0.85;;;;;;;;;;4994890;28;20475;-80
2021/10/16 22:46:12;;;;;;;1.38;1.27;;;;;;;;;;4994893;28;20046;-79
2021/10/16 22:48:38;;;;;;;0.50;0.50;;;;;;;;;;4995313;28;20533;-80
2021/10/16 22:51:06;;;;;;;0.10;0.10;;;;;;;;;;4994905;28;20042;-80
2021/10/16 22:53:32;;;;;;;0.10;0.10;;;;;;;;;;4995240;28;20022;-80
2021/10/16 22:55:57;;;;;;;0.20;0.20;;;;;;;;;;4995022;28;20037;-80
2021/10/16 22:58:31;;;;;;;2.45;2.25;;;;;;;;;;4995058;28;20437;-80
2021/10/16 23:00:57;;;;;;;0.13;0.13;;;;;;;;;;4994989;28;20450;-80
2021/10/16 23:03:23;;;;;;;0.28;0.28;;;;;;;;;;4995085;28;20061;-79
2021/10/16 23:05:48;;;;;;;0.73;0.73;;;;;;;;;;4994873;28;20026;-80
2021/10/16 23:08:14;;;;;;;0.50;0.50;;;;;;;;;;4994910;28;20030;-80
2021/10/16 23:10:39;;;;;;;0.68;0.68;;;;;;;;;;4994593;28;20493;-79
2021/10/16 23:13:04;;;;;;;0.85;0.85;;;;;;;;;;4994720;28;20018;-80
2021/10/16 23:15:30;;;;;;;1.20;1.10;;;;;;;;;;4994528;28;20080;-80
2021/10/16 23:17:55;;;;;;;0.20;0.20;;;;;;;;;;4994589;28;20439;-80
2021/10/16 23:20:20;;;;;;;1.58;1.48;;;;;;;;;;4993888;28;20029;-80
2021/10/16 23:22:45;;;;;;;1.67;1.58;;;;;;;;;;4994318;28;20425;-80
2021/10/16 23:25:11;;;;;;;0.80;0.77;;;;;;;;;;4994084;28;20484;-79
2021/10/16 23:27:37;;;;;;;1.73;1.45;;;;;;;;;;4994673;28;20014;-81
2021/10/16 23:30:06;;;;;;;0.00;0.00;;;;;;;;;;4994323;28;20486;-80
2021/10/16 23:32:32;;;;;;;0.10;0.10;;;;;;;;;;4994294;28;20473;-79
2021/10/16 23:34:57;;;;;;;0.10;0.10;;;;;;;;;;4994071;28;20054;-80
2021/10/16 23:37:22;;;;;;;0.45;0.45;;;;;;;;;;5007971;28;20335;-80
2021/10/16 23:39:48;;;;;;;0.60;0.60;;;;;;;;;;5012676;28;20052;-80
2021/10/16 23:42:13;;;;;;;0.65;0.65;;;;;;;;;;5013327;28;20108;-80
2021/10/16 23:44:38;;;;;;;1.00;1.00;;;;;;;;;;5013334;28;20036;-80
2021/10/16 23:47:03;;;;;;;0.47;0.47;;;;;;;;;;5013921;28;20060;-79
2021/10/16 23:49:29;;;;;;;0.20;0.20;;;;;;;;;;5013160;28;20034;-80
2021/10/16 23:51:54;;;;;;;0.90;0.90;;;;;;;;;;5013713;28;20018;-80
2021/10/16 23:54:20;;;;;;;0.47;0.45;;;;;;;;;;5013662;28;20386;-80
2021/10/16 23:56:46;;;;;;;1.23;1.13;;;;;;;;;;5013520;28;20014;-80
2021/10/16 23:59:11;;;;;;;0.32;0.32;;;;;;;;;;5013377;28;20067;-80
